Terminal Aerodrome Forecast
Issued by NWS

Home | Current Version | Previous Version | Text Only | Print | Product List | Glossary On
Versions: 1 2 3 4 5 6 7 8 9 10 11 12 13 14 15 16 17 18 19 20 21 22 23 24 25 26 27 28 29 30 31 32
000
FTAK31 PAFA 240520
TAFAOM
TAF
PAOM 240520Z 2406/2506 22010KT 3SM -RA BR BKN006 OVC011
     FM240800 22010G16KT 5SM -SHRA BR SCT007 OVC010
     FM241500 21005KT P6SM VCSH SCT007 OVC012=

USA.gov is the U.S. government's official web portal to all federal, state and local government web resources and services.